Startpagina
METAR-TAF:

METAR-TAF

Vliegvelden :

Worland Municipal Airport

Worland, Wyoming, Verenigde Staten

breedte: 43-57-57N, lengte: 107-57-03W, hoogte: 1288 m

Actueel weer

Dit bericht is 35 minuten geleden gemaakt, om 04:53 UTC
Temperatuur -6°C
Vochtigheid 79%
Druk 1014 hPa
Zicht: 16.1 km
Verspreide wolken op 6000 ft
Geheel bewolkt op 7500 ft

METAR: KWRL 090453Z AUTO 10SM SCT060 OVC075 M06/M09 A2994 RMK AO2 SNB31E40 SLP189 P0000 T10561094

Tijdstip: 22:28 (05:28 UTC)

Verwachting

Dit bericht is 5 uur en het 34 minuten geleden gemaakt, om 23:54 UTC
Verwachting geldig van 09 om 00 UTC tot 09 om 24 UTC
Wind 8 kt uit het noordnoordwesten
Zicht: 10 km
Verspreide wolken op 1500 ft
Geheel bewolkt op 2800 ft
Tijdelijke
van 09 om 00 UTC tot 09 om 01 UTC
Zicht: 1.6 km
Geheel bewolkt op 1000 ft
lichte sneeuw
Van 09 om 0900 UTC
Wind 5 kt uit variabele richting
Zicht: 10 km
Verspreide wolken op 10000 ft

TAF: KWRL 082354Z 0900/0924 33008KT P6SM SCT015 OVC028 TEMPO 0900/0901 1SM -SN OVC010 FM090900 VRB05KT P6SM SCT100

Waarnemingen en weersverwachtingen van meer dan 4000 vliegvelden (METAR en TAF).

De beschikbare stations zijn de gele en rode punten op de kaart.

Ga met uw muis naar het station om de naam te zien.

Klik dan om waarnemingen en weersverwachtingen te zien.

kaart wijzigen: klik op de groene knoppen met een zwart kruis om in te zoomen, op de groene knop met een streepje om uit te zoomen of op de groene pijlen voor aangrenzende kaarten.


METAR-TAF: